ME50 weather

CLOSED Cross Lake Seaplane Base
Sinclair, Maine, United States

Public forecast

Using degrees Fahrenheit for public forecast. Weather courtesy of forecast.io.

Closest aviation weather report (METAR) to Cross Lake Seaplane Base

Closest report is Northern Aroostook Regional Airport, 9.1 nm (16.9 km) N. Retrieved 2020/08/04 07:53 UTC (13 minutes ago):

KFVE 040753Z AUTO 29007KT 10SM CLR 16/14 A3002 RMK AO2 SLP159 T01610144

Closest aviation forecast (TAF) to Cross Lake Seaplane Base

Closest forecast is Northern Aroostook Regional Airport, 9.1 nm (16.9 km) N. Retrieved 2020/08/04 06:22 UTC (2 hours ago):

TAF KFVE 040520Z 0406/0506 30008KT P6SM SCT120 FM041200 VRB03KT P6SM SCT050 FM050100 18008KT P6SM VCSH BKN050 OVC090 FM050500 10014G24KT 6SM -SHRA SCT020 OVC035